Time;durP1;ratioP1;P1;durP2;ratioP2;P2;SDS_P1;SDS_P2;PMS_P1;PMS_P2;Temp;Humidity;BMP_temperature;BMP_pressure;BME280_temperature;BME280_humidity;BME280_pressure;Samples;Min_cycle;Max_cycle;Signal;HPM_P1;HPM_P2
2022/06/15 00:00:57;;;;;;;9.32;4.68;;;;;;;13.23;66.21;101378.38;4975761;28;20141;-79
2022/06/15 00:03:26;;;;;;;12.48;4.40;;;;;;;13.18;66.97;101372.47;4940234;28;20069;-79
2022/06/15 00:06:04;;;;;;;9.75;4.22;;;;;;;13.14;67.10;101378.88;4967325;28;20545;-80
2022/06/15 00:08:31;;;;;;;13.43;5.13;;;;;;;13.11;67.07;101385.22;4974974;28;20133;-79
2022/06/15 00:11:14;;;;;;;7.85;4.95;;;;;;;13.07;67.30;101378.41;4980353;28;20065;-79
2022/06/15 00:13:41;;;;;;;11.50;5.80;;;;;;;13.07;67.41;101374.91;4973264;28;20039;-79
2022/06/15 00:16:09;;;;;;;16.83;6.10;;;;;;;13.02;67.64;101380.47;4962102;28;20074;-79
2022/06/15 00:18:36;;;;;;;9.43;4.50;;;;;;;13.01;67.82;101375.22;4959960;28;20047;-79
2022/06/15 00:21:05;;;;;;;10.77;4.82;;;;;;;13.04;68.10;101377.72;4944346;28;20061;-79
2022/06/15 00:23:33;;;;;;;8.18;3.97;;;;;;;13.06;68.42;101371.41;4959857;28;20053;-80
2022/06/15 00:26:00;;;;;;;12.48;5.30;;;;;;;13.04;68.56;101368.00;4958880;28;20039;-81
2022/06/15 00:28:28;;;;;;;11.70;5.00;;;;;;;13.01;68.68;101362.03;4945104;28;20057;-80
2022/06/15 00:30:55;;;;;;;15.60;5.43;;;;;;;12.99;68.30;101364.75;4923367;28;20502;-79
2022/06/15 00:33:27;;;;;;;12.50;4.82;;;;;;;12.99;68.69;101369.19;4953157;28;20050;-79
2022/06/15 00:36:07;;;;;;;12.30;4.53;;;;;;;12.97;68.81;101371.94;4968841;28;20034;-77
2022/06/15 00:38:42;;;;;;;13.98;5.03;;;;;;;12.96;68.98;101356.16;4964187;28;20047;-80
2022/06/15 00:41:12;;;;;;;14.18;4.78;;;;;;;12.93;68.79;101358.03;4960492;28;20051;-79
2022/06/15 00:43:47;;;;;;;11.07;4.43;;;;;;;12.89;69.06;101356.50;4954928;28;20039;-79
2022/06/15 00:46:25;;;;;;;11.88;4.57;;;;;;;12.85;69.43;101362.91;4952537;28;20057;-77
2022/06/15 00:48:57;;;;;;;13.88;4.65;;;;;;;12.81;70.47;101366.66;4943775;28;20134;-79
2022/06/15 00:51:25;;;;;;;7.72;4.43;;;;;;;12.80;70.55;101358.81;4939720;28;20083;-78
2022/06/15 00:53:54;;;;;;;14.38;4.65;;;;;;;12.78;69.71;101368.63;4976126;28;20050;-77
2022/06/15 00:56:22;;;;;;;10.95;4.50;;;;;;;12.76;69.96;101360.78;4977194;28;20050;-79
2022/06/15 00:58:52;;;;;;;15.73;4.80;;;;;;;12.76;70.00;101368.72;4959344;28;20073;-77
2022/06/15 01:01:19;;;;;;;10.07;4.55;;;;;;;12.75;70.55;101366.16;4955874;28;20046;-79
2022/06/15 01:03:49;;;;;;;9.45;4.35;;;;;;;12.72;70.89;101367.19;4966790;28;20121;-78
2022/06/15 01:06:29;;;;;;;9.57;4.60;;;;;;;12.70;71.32;101365.53;4929004;28;20054;-77
2022/06/15 01:09:11;;;;;;;12.52;4.72;;;;;;;12.67;71.00;101363.94;4949901;28;20097;-79
2022/06/15 01:12:16;;;;;;;9.63;4.80;;;;;;;12.65;71.57;101368.44;4963896;28;20054;-79
2022/06/15 01:14:54;;;;;;;12.35;4.78;;;;;;;12.63;71.41;101371.19;4939930;28;20054;-79
2022/06/15 01:17:39;;;;;;;9.32;3.90;;;;;;;12.61;72.34;101365.16;4975376;28;20110;-79
2022/06/15 01:20:27;;;;;;;12.65;3.83;;;;;;;12.57;72.28;101365.41;4970570;28;20055;-79
2022/06/15 01:23:13;;;;;;;7.57;3.97;;;;;;;12.56;72.37;101366.31;4957032;28;20062;-78
2022/06/15 01:25:50;;;;;;;8.88;4.13;;;;;;;12.52;72.64;101363.00;4960442;28;20111;-77
2022/06/15 01:28:26;;;;;;;10.00;4.55;;;;;;;12.50;72.33;101364.88;4971531;28;20053;-77
2022/06/15 01:30:58;;;;;;;11.77;4.78;;;;;;;12.47;72.27;101358.91;4962160;28;20051;-78
2022/06/15 01:33:43;;;;;;;12.25;4.75;;;;;;;12.44;72.78;101357.28;4970612;28;20053;-78
2022/06/15 01:36:34;;;;;;;8.15;4.50;;;;;;;12.41;73.03;101360.94;4954600;28;20051;-78
2022/06/15 01:39:05;;;;;;;13.30;4.05;;;;;;;12.40;73.04;101361.03;4915146;28;20050;-78
2022/06/15 01:41:36;;;;;;;7.03;3.80;;;;;;;12.41;72.80;101363.59;4951294;28;20142;-77
2022/06/15 01:44:21;;;;;;;9.02;4.40;;;;;;;12.40;72.46;101366.31;4940220;28;20466;-79
2022/06/15 01:46:48;;;;;;;5.97;3.55;;;;;;;12.37;72.51;101362.03;4953850;28;20045;-78
2022/06/15 01:49:23;;;;;;;9.30;4.35;;;;;;;12.35;73.12;101360.44;4952820;28;20054;-78
2022/06/15 01:51:52;;;;;;;9.63;3.92;;;;;;;12.34;73.46;101356.09;4952274;28;20122;-79
2022/06/15 01:54:32;;;;;;;11.45;4.45;;;;;;;12.31;73.39;101351.84;4970899;28;20055;-78
2022/06/15 01:57:01;;;;;;;10.20;4.45;;;;;;;12.31;73.75;101345.69;4942570;28;20386;-78
2022/06/15 01:59:40;;;;;;;11.57;4.13;;;;;;;12.29;73.53;101347.56;4935673;28;20065;-77
2022/06/15 02:02:20;;;;;;;13.88;4.82;;;;;;;12.27;74.09;101347.66;4969565;28;20199;-79
2022/06/15 02:05:18;;;;;;;9.30;4.22;;;;;;;12.26;73.72;101355.66;4954084;28;20057;-78
2022/06/15 02:08:20;;;;;;;14.05;4.60;;;;;;;12.24;74.90;101346.97;4967028;28;20051;-78
2022/06/15 02:10:56;;;;;;;10.13;4.20;;;;;;;12.20;74.43;101348.06;4943884;28;20046;-79
2022/06/15 02:13:42;;;;;;;13.23;4.00;;;;;;;12.16;74.62;101350.88;4958282;28;20050;-78
2022/06/15 02:16:13;;;;;;;13.98;4.07;;;;;;;12.12;75.10;101351.97;4951592;28;20043;-77
2022/06/15 02:18:42;;;;;;;12.50;4.70;;;;;;;12.10;75.14;101353.84;4950149;28;20115;-77
2022/06/15 02:21:11;;;;;;;9.77;3.78;;;;;;;12.09;75.15;101352.13;4962613;28;20065;-77
2022/06/15 02:23:39;;;;;;;9.00;4.30;;;;;;;12.07;75.16;101353.16;4974967;28;20074;-78
2022/06/15 02:26:06;;;;;;;11.27;3.90;;;;;;;12.05;75.09;101355.03;4944645;28;20062;-77
2022/06/15 02:28:35;;;;;;;8.20;4.07;;;;;;;12.03;75.35;101348.97;4956994;28;20051;-79
2022/06/15 02:31:02;;;;;;;10.00;3.83;;;;;;;12.02;74.97;101345.50;4970665;28;20055;-79
2022/06/15 02:33:32;;;;;;;8.07;3.80;;;;;;;12.01;74.84;101338.50;4942213;28;20043;-79
2022/06/15 02:36:01;;;;;;;7.53;3.72;;;;;;;12.03;74.79;101341.91;4970935;28;20054;-79
2022/06/15 02:38:29;;;;;;;9.40;4.25;;;;;;;12.03;74.72;101335.78;4944260;28;20410;-80
2022/06/15 02:40:58;;;;;;;10.20;4.40;;;;;;;12.02;74.97;101334.94;4940829;28;20154;-80
2022/06/15 02:43:29;;;;;;;6.38;3.22;;;;;;;12.01;74.97;101341.13;4971290;28;20046;-79
2022/06/15 02:46:00;;;;;;;9.07;4.07;;;;;;;12.00;74.78;101342.06;4966997;28;20081;-79
2022/06/15 02:48:33;;;;;;;13.98;4.30;;;;;;;11.97;75.18;101331.66;4980492;28;20065;-79
2022/06/15 02:51:07;;;;;;;8.90;3.50;;;;;;;11.98;74.74;101338.69;4977450;28;20070;-79
2022/06/15 02:53:34;;;;;;;9.27;3.63;;;;;;;11.97;75.05;101342.22;4959901;28;20093;-79
2022/06/15 02:56:03;;;;;;;12.07;3.83;;;;;;;11.96;75.33;101342.31;4959930;28;20058;-80
2022/06/15 02:58:33;;;;;;;13.18;3.78;;;;;;;11.95;75.42;101335.34;4965383;28;20030;-79
2022/06/15 03:01:01;;;;;;;11.02;4.00;;;;;;;11.90;75.81;101341.72;4981062;28;20055;-80
2022/06/15 03:03:29;;;;;;;6.70;3.30;;;;;;;11.91;75.95;101345.19;4947172;28;20055;-80
2022/06/15 03:05:56;;;;;;;11.02;3.95;;;;;;;11.92;75.74;101349.53;4945109;28;20055;-78
2022/06/15 03:08:24;;;;;;;9.02;3.88;;;;;;;11.90;75.46;101344.34;4960335;28;20057;-80
2022/06/15 03:10:53;;;;;;;12.13;4.20;;;;;;;11.90;75.82;101357.53;4969250;28;20092;-80
2022/06/15 03:13:20;;;;;;;12.43;3.72;;;;;;;11.88;75.91;101355.91;4943303;28;20050;-79
2022/06/15 03:15:47;;;;;;;11.48;4.50;;;;;;;11.91;75.86;101361.03;4983047;28;20055;-80
2022/06/15 03:18:15;;;;;;;7.55;3.85;;;;;;;11.90;75.57;101354.91;4963976;28;20061;-81
2022/06/15 03:20:42;;;;;;;11.30;4.32;;;;;;;11.92;75.78;101344.25;4979751;28;20051;-78
2022/06/15 03:23:10;;;;;;;11.27;4.03;;;;;;;11.93;76.36;101358.31;4963827;28;20054;-78
2022/06/15 03:25:37;;;;;;;10.70;3.78;;;;;;;11.94;75.70;101350.31;4982806;28;20057;-80
2022/06/15 03:28:05;;;;;;;7.60;3.75;;;;;;;11.97;76.28;101349.28;4960087;28;20043;-79
2022/06/15 03:30:33;;;;;;;13.13;4.00;;;;;;;11.97;76.00;101352.78;4971188;28;20054;-80
2022/06/15 03:33:00;;;;;;;7.57;3.72;;;;;;;12.01;75.84;101361.38;4977455;28;20061;-80
2022/06/15 03:35:35;;;;;;;9.07;3.55;;;;;;;12.03;75.65;101357.75;4948969;28;20483;-79
2022/06/15 03:38:03;;;;;;;10.75;4.18;;;;;;;12.08;75.46;101360.16;4981543;28;20053;-80
2022/06/15 03:40:30;;;;;;;6.80;4.32;;;;;;;12.13;75.41;101358.97;4973928;28;20047;-80
2022/06/15 03:42:58;;;;;;;10.35;4.35;;;;;;;12.21;75.00;101368.25;4965083;28;20069;-79
2022/06/15 03:45:25;;;;;;;14.20;4.85;;;;;;;12.26;74.69;101364.44;4984652;28;20065;-80
2022/06/15 03:47:55;;;;;;;12.18;4.80;;;;;;;12.32;74.52;101366.72;4957521;28;20047;-81
2022/06/15 03:50:24;;;;;;;15.05;4.07;;;;;;;12.37;74.77;101363.84;4973165;28;20658;-80
2022/06/15 03:52:52;;;;;;;8.88;4.20;;;;;;;12.44;74.34;101362.59;4966458;28;20042;-80
2022/06/15 03:55:25;;;;;;;9.45;4.00;;;;;;;12.53;73.75;101363.88;4982216;28;20073;-79
2022/06/15 03:57:52;;;;;;;12.60;4.78;;;;;;;12.62;73.71;101350.16;4977367;28;20139;-79
2022/06/15 04:00:21;;;;;;;7.88;3.60;;;;;;;12.72;73.68;101356.59;4977748;28;20042;-80
2022/06/15 04:02:49;;;;;;;13.52;4.72;;;;;;;12.82;73.29;101347.22;4959911;28;20050;-80
2022/06/15 04:05:19;;;;;;;10.43;4.53;;;;;;;12.90;73.13;101341.50;4966621;28;20081;-80
2022/06/15 04:10:35;;;;;;;8.75;4.00;;;;;;;13.06;72.69;101344.13;4976267;28;20518;-80
2022/06/15 04:13:02;;;;;;;24.33;5.20;;;;;;;13.13;72.32;101342.81;4975851;28;20090;-80
2022/06/15 04:15:29;;;;;;;23.83;4.95;;;;;;;13.18;72.58;101340.75;4982938;28;20222;-80
2022/06/15 04:17:57;;;;;;;20.70;4.65;;;;;;;13.24;72.11;101340.44;4956391;28;20071;-80
2022/06/15 04:20:32;;;;;;;7.63;4.25;;;;;;;13.28;72.15;101346.38;4973280;28;20059;-81
2022/06/15 04:23:01;;;;;;;9.98;4.60;;;;;;;13.32;72.15;101346.13;4981397;28;20088;-81
2022/06/15 04:25:30;;;;;;;8.77;4.00;;;;;;;13.37;71.78;101343.19;4967474;28;20056;-80
2022/06/15 04:27:57;;;;;;;10.57;4.78;;;;;;;13.41;71.40;101340.28;4967877;28;20200;-80
2022/06/15 04:30:25;;;;;;;12.38;4.93;;;;;;;13.46;71.29;101353.22;4964019;28;20137;-79
2022/06/15 04:32:52;;;;;;;8.63;3.88;;;;;;;13.47;71.04;101352.31;4970403;28;20134;-81
2022/06/15 04:35:20;;;;;;;9.80;4.28;;;;;;;13.54;70.71;101350.97;4945481;28;20084;-81
2022/06/15 04:37:47;;;;;;;12.20;5.15;;;;;;;13.61;70.55;101351.47;4956596;28;20055;-83
2022/06/15 04:40:15;;;;;;;10.63;4.55;;;;;;;13.68;70.35;101356.28;4952508;28;20134;-83
2022/06/15 04:42:42;;;;;;;7.63;4.68;;;;;;;13.75;70.05;101354.16;4965991;28;20046;-81
2022/06/15 04:45:11;;;;;;;14.55;5.68;;;;;;;13.82;69.72;101350.16;4963781;28;20133;-80
2022/06/15 04:47:38;;;;;;;7.00;4.45;;;;;;;13.87;69.47;101352.56;4956043;28;20130;-80
2022/06/15 04:50:07;;;;;;;9.85;4.25;;;;;;;13.96;69.61;101357.28;4943943;28;20051;-81
2022/06/15 04:52:34;;;;;;;10.45;4.43;;;;;;;14.02;68.89;101354.25;4967599;28;20077;-81
2022/06/15 04:55:03;;;;;;;8.73;4.25;;;;;;;14.10;69.07;101348.50;4939067;28;20051;-81
2022/06/15 04:57:30;;;;;;;9.70;4.35;;;;;;;14.17;68.99;101348.00;4964628;28;20121;-80
2022/06/15 04:59:58;;;;;;;10.20;3.40;;;;;;;14.26;68.54;101348.38;4947052;28;20150;-80
2022/06/15 05:02:25;;;;;;;11.23;3.80;;;;;;;14.30;68.13;101348.06;4988409;28;20059;-80
2022/06/15 05:04:53;;;;;;;7.30;3.55;;;;;;;14.38;68.12;101348.44;4977406;28;20081;-80
2022/06/15 05:07:20;;;;;;;8.50;4.05;;;;;;;14.49;67.60;101341.66;4948998;28;20431;-80
2022/06/15 05:09:49;;;;;;;9.90;3.92;;;;;;;14.56;66.93;101343.81;4982301;28;20138;-81
2022/06/15 05:12:16;;;;;;;10.90;3.50;;;;;;;14.60;66.40;101350.63;4958400;28;20042;-79
2022/06/15 05:14:47;;;;;;;11.38;3.70;;;;;;;14.62;66.15;101350.50;4969127;28;20065;-80
2022/06/15 05:17:20;;;;;;;11.18;4.20;;;;;;;14.66;65.72;101347.56;4972966;28;20050;-80
2022/06/15 05:19:47;;;;;;;10.20;3.08;;;;;;;14.71;64.79;101344.63;4965840;28;20062;-80
2022/06/15 05:22:14;;;;;;;7.57;2.80;;;;;;;14.79;64.25;101350.28;4966628;28;20051;-83
2022/06/15 05:24:42;;;;;;;8.55;2.83;;;;;;;14.89;63.12;101343.41;4960018;28;20059;-79
2022/06/15 05:27:09;;;;;;;7.25;2.65;;;;;;;14.94;62.79;101343.97;4966658;28;20061;-80
2022/06/15 05:29:37;;;;;;;10.43;3.63;;;;;;;14.98;63.02;101347.25;4946426;28;20053;-81
2022/06/15 05:32:06;;;;;;;14.38;3.92;;;;;;;15.00;62.73;101349.84;4950490;28;20214;-81
2022/06/15 05:34:34;;;;;;;7.80;3.85;;;;;;;14.99;62.13;101354.25;4944980;28;20874;-80
2022/06/15 05:37:01;;;;;;;8.48;2.90;;;;;;;15.02;61.69;101351.41;4955093;28;20043;-80
2022/06/15 05:39:29;;;;;;;5.03;2.67;;;;;;;15.05;61.51;101356.53;4971639;28;20047;-80
2022/06/15 05:41:56;;;;;;;6.22;2.40;;;;;;;15.09;61.17;101360.69;4966402;28;20247;-80
2022/06/15 05:46:58;;;;;;;6.80;2.35;;;;;;;15.14;60.16;101358.56;4970361;28;20054;-80
2022/06/15 05:49:26;;;;;;;7.45;2.28;;;;;;;15.18;59.32;101354.75;4979756;28;20070;-81
2022/06/15 05:51:53;;;;;;;6.20;2.20;;;;;;;15.24;59.86;101350.00;4945296;29;20063;-79
2022/06/15 05:54:21;;;;;;;5.78;1.90;;;;;;;15.30;59.41;101347.78;4976525;28;20055;-80
2022/06/15 05:56:48;;;;;;;6.32;2.30;;;;;;;15.34;59.41;101359.03;4970744;28;20050;-79
2022/06/15 05:59:15;;;;;;;8.68;2.42;;;;;;;15.45;58.73;101349.41;4976334;28;20055;-80
2022/06/15 06:01:43;;;;;;;4.95;2.03;;;;;;;15.63;58.09;101360.56;4968549;28;20058;-81
2022/06/15 06:04:15;;;;;;;4.20;1.48;;;;;;;15.77;57.58;101356.16;4966165;28;20054;-81
2022/06/15 06:06:42;;;;;;;7.03;1.73;;;;;;;15.84;57.02;101362.72;4979090;28;20082;-80
2022/06/15 06:09:10;;;;;;;8.15;1.90;;;;;;;15.90;56.31;101359.66;4963915;28;20077;-80
2022/06/15 06:11:37;;;;;;;5.30;1.80;;;;;;;15.92;56.10;101366.53;4961746;28;20061;-80
2022/06/15 06:14:05;;;;;;;4.93;1.77;;;;;;;15.97;56.09;101360.06;4948351;28;20058;-79
2022/06/15 06:16:33;;;;;;;4.85;2.22;;;;;;;16.05;55.77;101363.03;4982192;28;20054;-80
2022/06/15 06:19:01;;;;;;;9.57;1.60;;;;;;;16.18;54.74;101364.72;4963134;28;20122;-79
2022/06/15 06:21:28;;;;;;;9.77;2.15;;;;;;;16.40;54.52;101371.19;4944076;28;20042;-79
2022/06/15 06:23:55;;;;;;;6.95;1.73;;;;;;;16.57;54.40;101367.28;4969317;28;20055;-80
2022/06/15 06:26:25;;;;;;;4.97;1.63;;;;;;;16.71;53.37;101364.50;4974109;28;20362;-81
2022/06/15 06:28:53;;;;;;;8.25;2.00;;;;;;;16.86;53.93;101365.22;4960754;28;20143;-80
2022/06/15 06:31:21;;;;;;;9.68;2.58;;;;;;;16.94;53.18;101358.38;4977353;28;20046;-80
2022/06/15 06:33:49;;;;;;;7.22;1.88;;;;;;;17.06;52.34;101361.06;4967601;28;20058;-80
2022/06/15 06:36:25;;;;;;;8.93;2.13;;;;;;;17.21;52.18;101362.59;4960363;28;20129;-79
2022/06/15 06:38:53;;;;;;;6.97;1.42;;;;;;;17.37;51.02;101356.94;4973436;28;20067;-79
2022/06/15 06:41:22;;;;;;;11.68;1.95;;;;;;;17.50;49.98;101355.06;4960798;28;20108;-79
2022/06/15 06:43:50;;;;;;;7.50;1.73;;;;;;;17.62;50.37;101364.78;4961349;28;20493;-79
2022/06/15 06:46:17;;;;;;;15.45;1.90;;;;;;;17.69;48.56;101362.47;4974499;28;20054;-79
2022/06/15 06:48:45;;;;;;;12.10;2.00;;;;;;;17.68;48.88;101366.94;4955793;28;20070;-78
2022/06/15 06:51:13;;;;;;;11.20;1.95;;;;;;;17.71;49.01;101360.56;4953992;28;20120;-79
2022/06/15 06:53:40;;;;;;;6.45;1.60;;;;;;;17.76;49.03;101363.75;4949044;28;20051;-79
2022/06/15 06:56:09;;;;;;;4.47;1.52;;;;;;;17.89;49.05;101364.50;4968589;28;20055;-78
2022/06/15 06:58:36;;;;;;;6.97;1.33;;;;;;;17.98;48.35;101368.25;4955593;28;20106;-80
2022/06/15 07:01:04;;;;;;;7.78;1.85;;;;;;;18.11;47.94;101361.00;4974805;28;20078;-80
2022/06/15 07:03:31;;;;;;;6.60;1.70;;;;;;;18.28;47.06;101364.13;4936918;28;20237;-80
2022/06/15 07:06:04;;;;;;;7.15;1.38;;;;;;;18.35;46.19;101365.34;4954308;28;20043;-80
2022/06/15 07:08:31;;;;;;;7.65;1.17;;;;;;;18.54;46.34;101370.03;4957896;28;20157;-81
2022/06/15 07:10:59;;;;;;;11.10;1.60;;;;;;;18.60;46.55;101373.06;4950130;28;20070;-80
2022/06/15 07:13:26;;;;;;;12.00;1.73;;;;;;;18.77;46.21;101368.19;4973799;28;20049;-78
2022/06/15 07:15:53;;;;;;;7.95;1.60;;;;;;;18.90;45.52;101361.72;4932028;28;20042;-83
2022/06/15 07:18:21;;;;;;;7.65;1.55;;;;;;;18.97;45.39;101362.09;4931331;28;20070;-84
2022/06/15 07:20:49;;;;;;;5.32;1.45;;;;;;;19.02;45.28;101364.38;4932688;28;20034;-85
2022/06/15 07:23:16;;;;;;;11.77;1.60;;;;;;;19.23;45.51;101358.09;4949654;28;20046;-84
2022/06/15 07:25:43;;;;;;;6.50;1.88;;;;;;;19.28;44.60;101359.53;4949615;28;20046;-85
2022/06/15 07:28:12;;;;;;;4.80;1.45;;;;;;;19.16;44.60;101356.06;4965469;28;20523;-81
2022/06/15 07:30:40;;;;;;;5.65;1.42;;;;;;;19.21;44.89;101368.03;4968195;28;20054;-82
2022/06/15 07:33:07;;;;;;;3.38;1.27;;;;;;;19.27;43.65;101360.50;4962664;28;20414;-81
2022/06/15 07:35:36;;;;;;;5.03;1.55;;;;;;;19.34;43.58;101359.84;4965466;28;20054;-82
2022/06/15 07:38:03;;;;;;;4.78;1.48;;;;;;;19.37;42.73;101353.41;4943822;28;20038;-83
2022/06/15 07:40:50;;;;;;;6.90;1.48;;;;;;;19.44;43.32;101358.09;4951841;28;20077;-84
2022/06/15 07:43:17;;;;;;;2.10;0.90;;;;;;;19.80;42.66;101360.47;4946736;28;20047;-83
2022/06/15 07:45:46;;;;;;;4.18;1.10;;;;;;;20.11;41.78;101354.13;4946713;28;20141;-85
2022/06/15 07:50:59;;;;;;;3.30;0.85;;;;;;;20.35;40.61;101361.81;4969491;28;20086;-80
2022/06/15 07:53:27;;;;;;;5.60;1.30;;;;;;;20.51;40.69;101369.38;4960555;28;20106;-81
2022/06/15 07:55:54;;;;;;;7.32;1.42;;;;;;;20.49;40.35;101363.34;4975390;28;20490;-83
2022/06/15 07:58:21;;;;;;;6.05;1.52;;;;;;;20.44;40.14;101366.38;4959018;28;20084;-82
2022/06/15 08:00:50;;;;;;;7.43;1.48;;;;;;;20.38;40.00;101360.72;4963984;28;20133;-84
2022/06/15 08:03:18;;;;;;;6.00;1.23;;;;;;;20.53;40.30;101358.53;4946643;28;20149;-84
2022/06/15 08:05:49;;;;;;;5.20;1.77;;;;;;;20.61;39.97;101364.03;4944346;28;20490;-84
2022/06/15 08:08:21;;;;;;;6.15;1.67;;;;;;;20.50;39.15;101362.34;4962660;28;20078;-84
2022/06/15 08:10:49;;;;;;;2.90;1.40;;;;;;;20.35;39.67;101361.81;4927046;28;20830;-81
2022/06/15 08:13:17;;;;;;;8.40;1.80;;;;;;;20.39;39.70;101365.91;4959414;28;20061;-82
2022/06/15 08:15:46;;;;;;;5.50;1.33;;;;;;;20.48;39.59;101361.63;4954337;28;20051;-82
2022/06/15 08:18:21;;;;;;;8.00;2.47;;;;;;;20.42;39.65;101359.47;4940695;28;20054;-83
2022/06/15 08:20:53;;;;;;;6.75;1.23;;;;;;;20.16;39.85;101354.56;4961260;28;20061;-83
2022/06/15 08:23:23;;;;;;;19.20;1.75;;;;;;;20.06;40.44;101355.53;4951227;28;20189;-83
2022/06/15 08:25:56;;;;;;;10.38;1.58;;;;;;;20.14;40.36;101359.22;4929381;28;20061;-80
2022/06/15 08:28:28;;;;;;;5.88;1.67;;;;;;;20.22;40.42;101356.72;4938123;28;20108;-83
2022/06/15 08:30:56;;;;;;;7.65;2.00;;;;;;;20.39;40.34;101357.06;4955323;28;20090;-86
2022/06/15 08:33:24;;;;;;;3.65;1.00;;;;;;;20.48;39.67;101358.94;4989960;28;20111;-81
2022/06/15 08:35:52;;;;;;;5.45;1.58;;;;;;;20.56;39.66;101344.88;4960303;28;20443;-78
2022/06/15 08:38:21;;;;;;;5.22;2.15;;;;;;;20.63;39.76;101336.19;4965663;28;20057;-77
2022/06/15 08:41:14;;;;;;;4.03;1.90;;;;;;;20.79;39.30;101327.59;4958480;28;20041;-78
2022/06/15 08:43:55;;;;;;;5.05;1.52;;;;;;;20.78;39.11;101328.59;4945262;28;20149;-78
2022/06/15 08:46:48;;;;;;;9.65;1.60;;;;;;;20.94;39.23;101326.22;4971032;28;20058;-79
2022/06/15 08:49:41;;;;;;;2.53;1.30;;;;;;;21.13;38.79;101317.34;4973215;28;20156;-78
2022/06/15 08:52:33;;;;;;;11.73;2.45;;;;;;;21.23;40.11;101310.13;4969534;28;20135;-79
2022/06/15 08:55:32;;;;;;;6.43;1.67;;;;;;;21.48;39.28;101319.44;4950143;28;20069;-78
2022/06/15 08:58:08;;;;;;;5.80;1.58;;;;;;;21.55;38.12;101319.69;4971220;28;20509;-83
2022/06/15 09:00:39;;;;;;;10.68;1.45;;;;;;;21.49;38.34;101314.91;4967773;28;20130;-80
2022/06/15 09:03:36;;;;;;;11.25;2.28;;;;;;;21.56;38.24;101309.81;4958005;28;20047;-82
2022/06/15 09:06:27;;;;;;;8.73;1.55;;;;;;;21.63;38.36;101319.81;4942961;28;20525;-81
2022/06/15 09:09:17;;;;;;;6.00;1.60;;;;;;;21.82;37.84;101324.25;4957732;28;20077;-80
2022/06/15 09:11:50;;;;;;;6.07;1.30;;;;;;;21.87;37.33;101321.13;4972706;28;20485;-80
2022/06/15 09:14:33;;;;;;;9.15;1.75;;;;;;;21.80;37.98;101318.22;4959276;28;20397;-79
2022/06/15 09:17:26;;;;;;;7.28;1.67;;;;;;;21.94;38.43;101317.72;4969251;28;20071;-78
2022/06/15 09:20:20;;;;;;;5.90;1.50;;;;;;;22.17;37.83;101314.69;4970632;28;20043;-79
2022/06/15 09:22:52;;;;;;;6.60;1.40;;;;;;;22.42;37.83;101315.81;4953846;28;20051;-79
2022/06/15 09:25:28;;;;;;;10.38;2.10;;;;;;;22.58;37.29;101307.94;4971536;28;20047;-78
2022/06/15 09:28:04;;;;;;;7.63;1.85;;;;;;;22.69;36.71;101306.88;4945882;28;20058;-77
2022/06/15 09:30:34;;;;;;;5.45;1.85;;;;;;;22.81;37.02;101304.81;4949868;28;20046;-76
2022/06/15 09:33:20;;;;;;;5.70;1.60;;;;;;;22.95;36.78;101299.78;4929681;28;20318;-76
2022/06/15 09:35:52;;;;;;;9.05;1.65;;;;;;;23.04;36.96;101299.84;4962492;28;20146;-76
2022/06/15 09:38:19;;;;;;;6.88;1.52;;;;;;;23.12;36.72;101305.28;4931517;28;20055;-77
2022/06/15 09:40:56;;;;;;;10.25;1.70;;;;;;;23.20;36.52;101306.19;4929621;28;20050;-78
2022/06/15 09:43:40;;;;;;;7.68;1.48;;;;;;;23.28;35.76;101305.44;4934060;28;20563;-76
2022/06/15 09:46:32;;;;;;;4.17;1.73;;;;;;;23.40;35.92;101304.16;4960844;28;20050;-77
2022/06/15 09:49:12;;;;;;;13.85;2.08;;;;;;;23.36;35.11;101301.94;4966142;28;20063;-76
2022/06/15 09:51:48;;;;;;;4.60;1.45;;;;;;;23.25;35.06;101303.03;4960549;28;20039;-78
2022/06/15 09:54:20;;;;;;;5.20;1.70;;;;;;;23.17;35.17;101306.50;4973858;28;20072;-77
2022/06/15 09:56:49;;;;;;;14.07;2.15;;;;;;;23.12;34.97;101299.91;4968067;28;20054;-77
2022/06/15 09:59:19;;;;;;;6.57;1.48;;;;;;;23.04;34.83;101305.22;4965942;28;20059;-78
2022/06/15 10:01:47;;;;;;;3.45;1.40;;;;;;;23.03;34.27;101301.69;4962924;28;20435;-77
2022/06/15 10:04:24;;;;;;;6.07;1.70;;;;;;;22.89;34.80;101296.84;4932342;28;20061;-78
2022/06/15 10:07:26;;;;;;;6.63;1.67;;;;;;;22.96;34.84;101295.25;4951003;28;20046;-77
2022/06/15 10:09:58;;;;;;;5.25;1.27;;;;;;;23.16;35.57;101301.31;4940608;28;20058;-77
2022/06/15 10:15:15;;;;;;;7.78;2.00;;;;;;;23.52;34.65;101294.00;4962586;28;20597;-78
2022/06/15 10:17:49;;;;;;;5.68;1.55;;;;;;;23.57;34.84;101288.97;4938472;28;20053;-78
2022/06/15 10:20:35;;;;;;;7.13;1.45;;;;;;;23.63;33.94;101296.41;4967330;28;20047;-78
2022/06/15 10:23:06;;;;;;;;;;;;;;;23.63;33.67;101288.34;4962874;28;20059;-79
2022/06/15 10:25:36;;;;;;;4.85;1.80;;;;;;;23.55;34.07;101282.94;4968197;28;19989;-78
2022/06/15 10:28:14;;;;;;;3.97;1.20;;;;;;;23.47;34.48;101285.56;4961309;28;20055;-78
2022/06/15 10:31:04;;;;;;;6.85;1.20;;;;;;;23.68;34.56;101274.44;4949278;28;20046;-78
2022/06/15 10:33:38;;;;;;;6.45;1.63;;;;;;;23.86;34.45;101279.75;4923187;28;20052;-78
2022/06/15 10:36:16;;;;;;;5.72;2.30;;;;;;;23.99;33.99;101277.47;4969781;28;20062;-78
2022/06/15 10:38:49;;;;;;;9.20;1.92;;;;;;;24.14;33.38;101278.53;4982581;28;20062;-82
2022/06/15 10:44:03;;;;;;;8.20;1.80;;;;;;;24.28;33.26;101265.47;4966820;28;20070;-79
2022/06/15 10:46:49;;;;;;;6.05;1.63;;;;;;;24.50;33.17;101275.63;4941664;28;20051;-80
2022/06/15 10:49:16;;;;;;;3.65;1.60;;;;;;;24.69;33.03;101266.41;4963529;28;20046;-83
2022/06/15 10:51:44;;;;;;;8.25;2.15;;;;;;;24.72;32.68;101266.06;4957066;28;20054;-79
2022/06/15 10:54:29;;;;;;;8.13;1.60;;;;;;;24.75;32.44;101266.56;4960786;28;20675;-79
2022/06/15 11:03:08;;;;;;;8.18;1.83;;;;;;;24.80;31.63;101262.53;4959077;28;20089;-80
2022/06/15 11:05:36;;;;;;;4.22;1.73;;;;;;;24.91;32.63;101254.13;4940729;28;20089;-82
2022/06/15 11:08:14;;;;;;;4.78;2.08;;;;;;;24.95;31.82;101247.41;4923078;28;20112;-82
2022/06/15 11:10:47;;;;;;;4.32;1.58;;;;;;;25.12;31.89;101248.25;4938124;28;20049;-83
2022/06/15 11:13:34;;;;;;;6.50;2.03;;;;;;;25.46;31.11;101251.56;4956382;28;20070;-79
2022/06/15 11:19:50;;;;;;;6.38;1.50;;;;;;;24.96;31.36;101241.00;4908402;29;20059;-79
2022/06/15 11:22:20;;;;;;;5.20;1.55;;;;;;;25.27;31.39;101241.16;4913035;29;20051;-80
2022/06/15 11:25:01;;;;;;;8.43;2.13;;;;;;;25.57;31.15;101236.84;4946452;28;20129;-80
2022/06/15 11:27:33;;;;;;;4.10;1.85;;;;;;;25.87;30.13;101237.97;4944951;28;20051;-79
2022/06/15 11:30:21;;;;;;;4.65;1.80;;;;;;;25.86;30.16;101233.59;4961760;28;20054;-79
2022/06/15 11:32:56;;;;;;;7.38;2.30;;;;;;;25.82;30.08;101234.13;4980065;28;20055;-79
2022/06/15 11:35:30;;;;;;;9.90;2.40;;;;;;;26.07;30.18;101238.34;4960541;28;20070;-80
2022/06/15 11:38:09;;;;;;;7.38;2.30;;;;;;;26.34;29.77;101242.41;4957034;28;20130;-79
2022/06/15 11:40:42;;;;;;;8.95;2.10;;;;;;;26.57;29.23;101228.13;4947977;28;20038;-79
2022/06/15 11:43:20;;;;;;;9.57;2.50;;;;;;;26.36;29.17;101228.75;4969548;28;20061;-78
2022/06/15 11:46:09;;;;;;;7.90;2.10;;;;;;;26.33;29.31;101221.84;4966936;28;20064;-78
2022/06/15 11:48:43;;;;;;;8.18;1.73;;;;;;;26.40;28.87;101216.59;4952378;28;20043;-77
2022/06/15 11:51:16;;;;;;;3.90;1.98;;;;;;;26.59;28.89;101208.03;4951360;28;20039;-77
2022/06/15 11:53:58;;;;;;;6.25;1.67;;;;;;;26.59;29.25;101199.09;4961179;28;20165;-77
2022/06/15 11:56:30;;;;;;;8.40;2.40;;;;;;;26.60;29.05;101200.75;4964885;28;20046;-76
2022/06/15 11:59:23;;;;;;;9.65;2.00;;;;;;;26.85;28.96;101212.22;4956679;28;20042;-76
2022/06/15 12:02:06;;;;;;;7.88;1.65;;;;;;;26.80;28.57;101199.25;4959359;28;20050;-76
2022/06/15 12:05:02;;;;;;;6.93;2.28;;;;;;;26.60;28.32;101207.00;4951793;28;20042;-81
2022/06/15 12:07:49;;;;;;;5.22;2.15;;;;;;;26.38;28.26;101199.72;4957438;28;20053;-79
2022/06/15 12:10:26;;;;;;;7.05;2.13;;;;;;;26.20;29.02;101194.59;4948768;28;20065;-80